Time;durP1;ratioP1;P1;durP2;ratioP2;P2;SDS_P1;SDS_P2;PMS_P1;PMS_P2;Temp;Humidity;BMP_temperature;BMP_pressure;BME280_temperature;BME280_humidity;BME280_pressure;Samples;Min_cycle;Max_cycle;Signal;HPM_P1;HPM_P2
2022/04/05 00:00:28;;;;;;;8.27;6.47;;;4.60;90.10;;;;;;4163096;28;20628;-71
2022/04/05 00:02:30;;;;;;;8.70;6.63;;;4.60;90.20;;;;;;4165924;28;21341;-72
2022/04/05 00:04:32;;;;;;;7.95;7.18;;;4.70;90.20;;;;;;4146302;28;20066;-72
2022/04/05 00:06:33;;;;;;;7.00;6.30;;;4.60;90.20;;;;;;4148894;28;20054;-71
2022/04/05 00:08:35;;;;;;;7.25;6.30;;;4.60;90.20;;;;;;4150211;28;20809;-71
2022/04/05 00:10:37;;;;;;;7.40;6.35;;;4.60;90.20;;;;;;4150754;28;20097;-72
2022/04/05 00:12:40;;;;;;;7.50;6.78;;;4.60;90.40;;;;;;4151463;28;20071;-71
2022/04/05 00:14:41;;;;;;;8.20;7.05;;;4.60;90.30;;;;;;4152953;28;20073;-72
2022/04/05 00:16:43;;;;;;;9.45;7.05;;;4.60;90.30;;;;;;4157052;28;20086;-71
2022/04/05 00:18:45;;;;;;;8.10;7.30;;;4.60;90.30;;;;;;4152656;28;20792;-72
2022/04/05 00:20:47;;;;;;;7.72;6.97;;;4.60;90.40;;;;;;4153228;28;20121;-72
2022/04/05 00:22:48;;;;;;;9.07;7.00;;;4.60;90.40;;;;;;4150420;28;20060;-72
2022/04/05 00:24:50;;;;;;;6.38;5.75;;;4.50;90.40;;;;;;4153176;28;20153;-72
2022/04/05 00:26:52;;;;;;;9.10;7.63;;;4.60;90.50;;;;;;4152834;28;20077;-72
2022/04/05 00:28:54;;;;;;;7.57;6.60;;;4.50;90.50;;;;;;4150098;28;20066;-72
2022/04/05 00:30:56;;;;;;;9.48;7.30;;;4.60;90.80;;;;;;4152623;28;20058;-72
2022/04/05 00:32:58;;;;;;;8.60;7.63;;;4.60;90.80;;;;;;4151922;28;20058;-72
2022/04/05 00:34:59;;;;;;;10.63;7.63;;;4.50;90.70;;;;;;4150294;28;20612;-71
2022/04/05 00:37:01;;;;;;;9.60;7.00;;;4.50;90.70;;;;;;4152449;28;20114;-72
2022/04/05 00:39:03;;;;;;;8.07;6.45;;;4.50;90.80;;;;;;4149917;28;20054;-72
2022/04/05 00:41:05;;;;;;;7.70;7.00;;;4.50;90.70;;;;;;4151061;28;20065;-73
2022/04/05 00:43:06;;;;;;;7.32;6.55;;;4.60;90.60;;;;;;4150497;28;20058;-72
2022/04/05 00:45:15;;;;;;;8.55;6.97;;;4.60;90.70;;;;;;4151609;28;20058;-73
2022/04/05 00:47:20;;;;;;;8.38;7.03;;;4.60;90.60;;;;;;4151756;28;20062;-72
2022/04/05 00:49:30;;;;;;;8.98;7.00;;;4.60;90.60;;;;;;4152994;28;20182;-73
2022/04/05 00:51:31;;;;;;;8.73;7.03;;;4.60;90.80;;;;;;4147964;28;20062;-73
2022/04/05 00:53:34;;;;;;;8.07;6.85;;;4.60;90.70;;;;;;4150018;28;20632;-72
2022/04/05 00:55:37;;;;;;;8.65;7.72;;;4.60;90.70;;;;;;4149817;28;20786;-73
2022/04/05 00:57:41;;;;;;;12.88;7.53;;;4.60;90.50;;;;;;4152717;28;20856;-73
2022/04/05 00:59:46;;;;;;;11.07;7.18;;;4.60;90.50;;;;;;4149730;28;20062;-73
2022/04/05 01:01:50;;;;;;;7.30;6.70;;;4.60;90.50;;;;;;4149673;28;20058;-73
2022/04/05 01:03:53;;;;;;;10.00;7.18;;;4.60;90.60;;;;;;4149394;28;20058;-73
2022/04/05 01:05:57;;;;;;;7.28;5.82;;;4.70;90.60;;;;;;4148801;28;20786;-73
2022/04/05 01:07:59;;;;;;;8.02;7.13;;;4.70;90.70;;;;;;4148803;28;20880;-73
2022/04/05 01:10:06;;;;;;;9.55;7.18;;;4.70;90.70;;;;;;4150531;28;20157;-74
2022/04/05 01:12:10;;;;;;;7.45;6.15;;;4.70;90.40;;;;;;4163123;28;20140;-73
2022/04/05 01:14:11;;;;;;;7.82;6.97;;;4.70;90.10;;;;;;4153204;28;20765;-72
2022/04/05 01:16:13;;;;;;;8.68;6.47;;;4.70;90.30;;;;;;4150972;28;20873;-72
2022/04/05 01:18:34;;;;;;;10.35;7.18;;;4.70;90.30;;;;;;4147356;28;20872;-72
2022/04/05 01:20:35;;;;;;;11.15;5.85;;;4.80;90.40;;;;;;4150494;28;20062;-72
2022/04/05 01:22:45;;;;;;;7.32;6.63;;;4.80;90.60;;;;;;4148449;28;20078;-72
2022/04/05 01:24:47;;;;;;;8.20;7.40;;;4.80;90.50;;;;;;4151430;28;20734;-72
2022/04/05 01:26:51;;;;;;;8.15;6.05;;;4.90;90.60;;;;;;4150468;28;20906;-72
2022/04/05 01:28:53;;;;;;;7.25;6.45;;;4.90;90.70;;;;;;4149736;28;20058;-72
2022/04/05 01:30:55;;;;;;;8.23;7.05;;;4.90;90.80;;;;;;4145960;28;20058;-72
2022/04/05 01:32:59;;;;;;;11.15;7.38;;;4.80;91.10;;;;;;4148498;28;20161;-72
2022/04/05 01:35:01;;;;;;;7.47;6.78;;;4.80;91.40;;;;;;4149146;28;20054;-72
2022/04/05 01:37:05;;;;;;;7.00;6.30;;;4.70;91.60;;;;;;4148178;28;20157;-72
2022/04/05 01:39:07;;;;;;;7.75;7.00;;;4.70;91.60;;;;;;4148136;28;20850;-72
2022/04/05 01:41:09;;;;;;;8.65;6.85;;;4.70;91.70;;;;;;4149112;28;20062;-72
2022/04/05 01:43:10;;;;;;;11.15;7.18;;;4.70;91.70;;;;;;4151314;28;20094;-72
2022/04/05 01:45:12;;;;;;;10.48;6.88;;;4.80;91.50;;;;;;4148552;28;20630;-72
2022/04/05 01:47:16;;;;;;;9.02;7.18;;;4.70;91.50;;;;;;4147730;28;20166;-72
2022/04/05 01:49:18;;;;;;;7.95;6.60;;;4.70;91.40;;;;;;4150842;28;20189;-73
2022/04/05 01:51:19;;;;;;;9.05;6.93;;;4.70;91.00;;;;;;4149381;28;20058;-72
2022/04/05 01:53:21;;;;;;;7.50;6.70;;;4.70;91.00;;;;;;4165395;28;20662;-72
2022/04/05 01:55:23;;;;;;;7.13;6.43;;;4.80;90.90;;;;;;4150217;28;20098;-72
2022/04/05 01:57:25;;;;;;;7.70;6.18;;;4.80;90.90;;;;;;4150916;28;20061;-73
2022/04/05 01:59:29;;;;;;;7.13;6.45;;;4.80;91.00;;;;;;4150165;28;20061;-72
2022/04/05 02:01:30;;;;;;;7.80;6.07;;;4.80;91.00;;;;;;4149137;28;20058;-72
2022/04/05 02:03:32;;;;;;;10.00;5.80;;;4.80;90.50;;;;;;4148488;28;20066;-72
2022/04/05 02:05:34;;;;;;;9.52;6.50;;;4.80;90.80;;;;;;4149421;28;20101;-72
2022/04/05 02:07:36;;;;;;;7.15;6.45;;;4.80;90.50;;;;;;4148301;28;20059;-72
2022/04/05 02:09:38;;;;;;;7.93;6.25;;;4.80;91.00;;;;;;4148242;28;20104;-72
2022/04/05 02:11:44;;;;;;;8.88;6.97;;;4.70;90.80;;;;;;4147864;28;20065;-72
2022/04/05 02:13:46;;;;;;;9.02;6.47;;;4.80;91.20;;;;;;4147485;28;20149;-72
2022/04/05 02:15:48;;;;;;;16.25;6.50;;;4.70;91.10;;;;;;4149399;28;20097;-72
2022/04/05 02:17:49;;;;;;;7.20;6.32;;;4.70;91.30;;;;;;4148981;28;20060;-72
2022/04/05 02:19:51;;;;;;;7.63;6.82;;;4.70;91.40;;;;;;4197748;23;20128;-77
2022/04/05 02:21:53;;;;;;;6.43;5.80;;;4.80;91.40;;;;;;4183256;28;20080;-76
2022/04/05 02:23:55;;;;;;;7.80;6.78;;;4.70;91.30;;;;;;4183606;28;20055;-76
2022/04/05 02:25:57;;;;;;;9.27;6.53;;;4.70;91.60;;;;;;4177789;28;20097;-77
2022/04/05 02:27:59;;;;;;;8.05;6.63;;;4.70;91.60;;;;;;4177035;28;20753;-77
2022/04/05 02:30:01;;;;;;;11.55;7.05;;;4.70;91.40;;;;;;4170431;28;20213;-77
2022/04/05 02:32:02;;;;;;;11.75;6.90;;;4.70;91.30;;;;;;4177229;28;20057;-77
2022/04/05 02:34:04;;;;;;;10.07;6.75;;;4.70;91.10;;;;;;4173806;28;20058;-77
2022/04/05 02:36:07;;;;;;;7.30;5.88;;;4.70;91.20;;;;;;4179449;28;20057;-76
2022/04/05 02:38:09;;;;;;;8.48;6.35;;;4.70;91.10;;;;;;4179075;28;20057;-76
2022/04/05 02:40:11;;;;;;;8.57;6.78;;;4.70;91.40;;;;;;4171052;28;20896;-77
2022/04/05 02:42:13;;;;;;;7.32;6.10;;;4.80;91.30;;;;;;4181250;28;20172;-76
2022/04/05 02:44:15;;;;;;;8.07;6.55;;;4.70;91.10;;;;;;4198192;28;20096;-76
2022/04/05 02:46:17;;;;;;;7.30;6.45;;;4.80;91.20;;;;;;4179170;28;20172;-76
2022/04/05 02:48:18;;;;;;;8.35;6.13;;;4.80;91.70;;;;;;4181909;28;20171;-76
2022/04/05 02:50:20;;;;;;;8.80;6.85;;;4.80;91.10;;;;;;4173419;28;20062;-76
2022/04/05 02:52:22;;;;;;;8.65;6.78;;;4.70;91.00;;;;;;4180125;28;20058;-77
2022/04/05 02:54:24;;;;;;;9.25;5.95;;;4.80;91.10;;;;;;4174223;28;20062;-76
2022/04/05 02:56:25;;;;;;;9.38;5.95;;;4.80;91.20;;;;;;4175181;28;20093;-76
2022/04/05 02:58:27;;;;;;;6.72;6.05;;;4.80;91.40;;;;;;4172252;28;20062;-76
2022/04/05 03:00:29;;;;;;;8.65;6.35;;;4.80;91.10;;;;;;4172153;28;20058;-77
2022/04/05 03:02:31;;;;;;;10.73;6.95;;;4.80;91.10;;;;;;4177473;28;20068;-77
2022/04/05 03:04:36;;;;;;;7.50;6.80;;;4.80;91.10;;;;;;4201875;28;20859;-75
2022/04/05 03:06:38;;;;;;;10.50;6.45;;;4.80;91.20;;;;;;4199576;28;20041;-76
2022/04/05 03:08:40;;;;;;;11.32;6.22;;;4.80;91.20;;;;;;4177010;28;20061;-77
2022/04/05 03:10:41;;;;;;;9.70;6.65;;;4.80;91.30;;;;;;4179711;28;20867;-75
2022/04/05 03:12:43;;;;;;;7.93;6.70;;;4.70;91.50;;;;;;4166510;28;20097;-76
2022/04/05 03:14:45;;;;;;;8.07;6.05;;;4.70;91.70;;;;;;4181444;28;20058;-76
2022/04/05 03:16:47;;;;;;;9.13;6.63;;;4.70;91.60;;;;;;4178376;28;20741;-76
2022/04/05 03:18:50;;;;;;;7.20;6.10;;;4.70;91.70;;;;;;4169944;28;20061;-78
2022/04/05 03:20:52;;;;;;;7.13;6.20;;;4.70;91.60;;;;;;4177971;28;20953;-77
2022/04/05 03:22:56;;;;;;;6.10;5.50;;;4.60;91.60;;;;;;4174649;28;20685;-76
2022/04/05 03:24:57;;;;;;;8.68;6.90;;;4.70;91.70;;;;;;4173259;28;20135;-76
2022/04/05 03:26:59;;;;;;;8.32;6.80;;;4.70;91.50;;;;;;4171250;28;20053;-76
2022/04/05 03:29:00;;;;;;;6.55;5.32;;;4.80;91.50;;;;;;4176996;28;20054;-76
2022/04/05 03:31:02;;;;;;;6.97;6.03;;;4.70;91.30;;;;;;4171420;28;20148;-76
2022/04/05 03:33:04;;;;;;;9.65;7.30;;;4.80;91.40;;;;;;4180074;28;20057;-76
2022/04/05 03:35:07;;;;;;;7.63;6.22;;;4.80;91.10;;;;;;4200608;28;20080;-78
2022/04/05 03:37:09;;;;;;;6.60;5.60;;;4.80;90.90;;;;;;4197198;28;20054;-75
2022/04/05 03:39:13;;;;;;;5.97;5.38;;;4.80;90.90;;;;;;4185664;28;20065;-75
2022/04/05 03:41:15;;;;;;;8.85;5.90;;;4.80;90.80;;;;;;4186754;28;20057;-78
2022/04/05 03:43:17;;;;;;;7.07;6.05;;;4.90;90.70;;;;;;4195631;28;20058;-76
2022/04/05 03:45:19;;;;;;;6.38;5.80;;;4.90;90.50;;;;;;4181894;28;20060;-77
2022/04/05 03:47:21;;;;;;;6.95;6.25;;;4.90;90.70;;;;;;4179721;28;20156;-76
2022/04/05 03:49:23;;;;;;;7.38;6.57;;;4.90;90.50;;;;;;4186425;28;20068;-77
2022/04/05 03:51:25;;;;;;;8.38;5.32;;;4.90;90.40;;;;;;4189079;28;20045;-76
2022/04/05 03:53:26;;;;;;;7.65;6.82;;;4.90;90.30;;;;;;4186045;28;20073;-77
2022/04/05 03:55:28;;;;;;;6.95;5.75;;;4.90;90.20;;;;;;4179032;28;20153;-77
2022/04/05 03:57:30;;;;;;;7.18;6.30;;;4.90;90.30;;;;;;4182484;28;20088;-77
2022/04/05 03:59:32;;;;;;;9.75;6.50;;;5.00;90.20;;;;;;4187289;28;20069;-76
2022/04/05 04:01:34;;;;;;;6.85;5.25;;;5.00;90.70;;;;;;4185887;28;20124;-78
2022/04/05 04:03:36;;;;;;;6.32;5.75;;;5.00;90.20;;;;;;4186976;28;20065;-76
2022/04/05 04:05:37;;;;;;;6.30;5.50;;;5.00;90.10;;;;;;4188738;28;20089;-79
2022/04/05 04:07:39;;;;;;;6.75;5.53;;;4.90;90.30;;;;;;4204231;28;20061;-77
2022/04/05 04:09:41;;;;;;;6.22;5.35;;;4.90;90.60;;;;;;4182755;28;20085;-77
2022/04/05 04:11:44;;;;;;;7.18;6.03;;;5.00;90.60;;;;;;4175000;28;20081;-77
2022/04/05 04:13:46;;;;;;;6.85;5.68;;;5.00;90.10;;;;;;4202654;28;20887;-77
2022/04/05 04:15:48;;;;;;;8.93;7.45;;;5.00;89.90;;;;;;4189827;28;20135;-78
2022/04/05 04:17:49;;;;;;;5.32;4.80;;;5.00;90.00;;;;;;4186245;28;20080;-77
2022/04/05 04:19:52;;;;;;;8.77;5.80;;;5.00;90.10;;;;;;4186363;28;20180;-76
2022/04/05 04:21:53;;;;;;;7.55;5.50;;;5.00;90.00;;;;;;4189904;28;20061;-77
2022/04/05 04:23:55;;;;;;;6.85;6.00;;;5.00;90.30;;;;;;4190417;28;20122;-77
2022/04/05 04:25:57;;;;;;;6.85;6.20;;;5.00;90.50;;;;;;4181732;28;20836;-77
2022/04/05 04:27:59;;;;;;;6.45;5.85;;;5.00;91.20;;;;;;4178021;28;20768;-77
2022/04/05 04:30:01;;;;;;;9.82;6.97;;;4.90;91.90;;;;;;4184915;28;20864;-77
2022/04/05 04:32:03;;;;;;;6.82;6.15;;;4.90;92.30;;;;;;4185101;28;20052;-77
2022/04/05 04:34:05;;;;;;;9.50;6.20;;;4.80;93.30;;;;;;4211689;28;20056;-78
2022/04/05 04:36:07;;;;;;;8.05;6.18;;;4.80;93.60;;;;;;4199171;28;20120;-78
2022/04/05 04:38:09;;;;;;;5.95;5.35;;;4.70;93.70;;;;;;4191957;28;20093;-77
2022/04/05 04:40:11;;;;;;;6.50;5.90;;;4.70;93.70;;;;;;4189700;28;20049;-78
2022/04/05 04:42:13;;;;;;;8.48;6.97;;;4.70;93.80;;;;;;4191079;28;20198;-77
2022/04/05 04:44:15;;;;;;;7.50;6.22;;;4.70;93.90;;;;;;4189020;28;20076;-78
2022/04/05 04:46:17;;;;;;;7.90;6.15;;;4.70;94.40;;;;;;4186707;28;20076;-78
2022/04/05 04:48:19;;;;;;;9.38;6.80;;;4.60;94.30;;;;;;4190161;28;20050;-77
2022/04/05 04:50:21;;;;;;;8.27;7.00;;;4.60;94.40;;;;;;4185791;28;20144;-77
2022/04/05 04:52:24;;;;;;;9.43;6.47;;;4.60;95.00;;;;;;4184203;28;20152;-78
2022/04/05 04:54:26;;;;;;;9.85;6.72;;;4.60;95.60;;;;;;4187799;28;20133;-78
2022/04/05 04:56:28;;;;;;;7.95;6.85;;;4.60;95.40;;;;;;4179437;28;20064;-78
2022/04/05 04:58:30;;;;;;;8.25;6.85;;;4.60;95.20;;;;;;4181859;28;20176;-78
2022/04/05 05:00:32;;;;;;;6.93;6.22;;;4.60;95.40;;;;;;4184479;28;20069;-78
2022/04/05 05:02:47;;;;;;;7.93;6.93;;;4.60;95.30;;;;;;4184911;28;20221;-77
2022/04/05 05:04:49;;;;;;;7.15;5.82;;;4.60;95.20;;;;;;4185072;28;20057;-78
2022/04/05 05:06:52;;;;;;;7.50;5.95;;;4.60;95.20;;;;;;4186679;28;20068;-78
2022/04/05 05:08:54;;;;;;;8.88;6.82;;;4.60;95.50;;;;;;4176551;28;20201;-78
2022/04/05 05:10:56;;;;;;;7.63;6.15;;;4.60;95.30;;;;;;4186702;28;20049;-77
2022/04/05 05:12:58;;;;;;;7.18;6.20;;;4.60;95.80;;;;;;4189244;28;20065;-78
2022/04/05 05:14:59;;;;;;;8.40;6.78;;;4.60;95.70;;;;;;4188751;28;20165;-78
2022/04/05 05:17:01;;;;;;;7.45;5.57;;;4.60;95.80;;;;;;4179916;28;20045;-77
2022/04/05 05:19:05;;;;;;;7.97;7.18;;;4.60;96.20;;;;;;4192645;28;20226;-78
2022/04/05 05:21:06;;;;;;;7.43;6.32;;;4.60;96.30;;;;;;4183057;28;20061;-77
2022/04/05 05:23:08;;;;;;;8.75;6.63;;;4.60;96.20;;;;;;4176196;28;20108;-78
2022/04/05 05:25:11;;;;;;;7.55;5.82;;;4.60;96.00;;;;;;4184673;28;20058;-78
2022/04/05 05:27:15;;;;;;;8.50;6.22;;;4.70;96.10;;;;;;4185626;28;20100;-78
2022/04/05 05:29:17;;;;;;;8.02;6.35;;;4.70;95.90;;;;;;4194172;28;20109;-78
2022/04/05 05:31:18;;;;;;;9.02;6.65;;;4.60;95.50;;;;;;4187663;28;20046;-78
2022/04/05 05:33:20;;;;;;;6.68;5.57;;;4.70;95.50;;;;;;4173268;28;20076;-77
2022/04/05 05:35:23;;;;;;;7.18;6.15;;;4.70;95.60;;;;;;4188263;28;20061;-78
2022/04/05 05:37:24;;;;;;;11.25;6.18;;;4.70;95.20;;;;;;4182112;28;20057;-78
2022/04/05 05:39:26;;;;;;;9.02;5.97;;;4.70;95.50;;;;;;4185193;28;20079;-78
2022/04/05 05:41:28;;;;;;;8.85;6.88;;;4.70;95.50;;;;;;4196567;28;20156;-77
2022/04/05 05:43:30;;;;;;;7.30;5.57;;;4.70;95.20;;;;;;4183604;28;20063;-79
2022/04/05 05:48:48;;;;;;;7.97;6.35;;;4.80;95.70;;;;;;4177280;28;20799;-77
2022/04/05 05:50:51;;;;;;;6.72;6.13;;;4.80;95.80;;;;;;4175081;28;20957;-78
2022/04/05 05:52:52;;;;;;;7.03;6.32;;;4.80;95.80;;;;;;4184023;28;20057;-78
2022/04/05 05:54:54;;;;;;;11.07;6.80;;;4.80;96.50;;;;;;4190803;28;20077;-79
2022/04/05 05:56:56;;;;;;;7.10;6.18;;;4.80;96.40;;;;;;4178719;28;20120;-79
2022/04/05 05:58:57;;;;;;;7.63;6.35;;;4.70;96.60;;;;;;4188709;28;20757;-79
2022/04/05 06:00:59;;;;;;;12.35;6.60;;;4.70;97.00;;;;;;4173182;28;20066;-80
2022/04/05 06:03:02;;;;;;;10.73;6.43;;;4.70;97.00;;;;;;4218532;28;20044;-80
2022/04/05 06:05:05;;;;;;;8.85;6.85;;;4.70;97.30;;;;;;4199738;28;20073;-79
2022/04/05 06:07:12;;;;;;;10.32;6.38;;;4.70;97.80;;;;;;4194908;28;20057;-80
2022/04/05 06:09:14;;;;;;;7.78;6.18;;;4.70;97.60;;;;;;4190422;28;20049;-80
2022/04/05 06:11:16;;;;;;;8.13;6.85;;;4.70;97.90;;;;;;4184515;28;20132;-80
2022/04/05 06:13:18;;;;;;;7.43;6.32;;;4.70;98.20;;;;;;4185931;28;20076;-79
2022/04/05 06:15:20;;;;;;;13.57;7.28;;;4.70;98.20;;;;;;4186947;28;20057;-79
2022/04/05 06:17:22;;;;;;;12.35;6.72;;;4.60;98.70;;;;;;4202811;28;20041;-81
2022/04/05 06:19:24;;;;;;;7.72;6.80;;;4.60;98.70;;;;;;4190251;28;20089;-80
2022/04/05 06:21:25;;;;;;;8.60;6.97;;;4.60;99.10;;;;;;4183911;28;20124;-81
2022/04/05 06:23:27;;;;;;;7.97;6.95;;;4.70;99.50;;;;;;4186693;28;20081;-80
2022/04/05 06:25:36;;;;;;;10.73;6.90;;;4.70;99.50;;;;;;4181445;28;20079;-80
2022/04/05 06:27:38;;;;;;;8.07;6.60;;;4.70;99.20;;;;;;4184234;28;20062;-79
2022/04/05 06:29:40;;;;;;;7.57;6.75;;;4.70;98.90;;;;;;4190070;28;20160;-81
2022/04/05 06:31:42;;;;;;;7.70;6.47;;;4.80;98.90;;;;;;4183907;28;20828;-82
2022/04/05 06:33:43;;;;;;;6.57;5.78;;;4.80;98.70;;;;;;4185446;28;20061;-79
2022/04/05 06:35:48;;;;;;;8.02;6.35;;;4.80;99.10;;;;;;4189046;28;20049;-80
2022/04/05 06:37:49;;;;;;;10.10;7.35;;;4.80;99.20;;;;;;4188448;28;20045;-80
2022/04/05 06:39:51;;;;;;;8.38;6.50;;;4.80;99.10;;;;;;4185920;28;20061;-81
2022/04/05 06:41:53;;;;;;;12.20;7.53;;;4.80;99.50;;;;;;4185535;28;20168;-82
2022/04/05 06:43:55;;;;;;;10.02;6.65;;;4.90;99.80;;;;;;4191232;28;20063;-82
2022/04/05 06:45:57;;;;;;;7.72;6.95;;;4.90;98.80;;;;;;4194115;28;20164;-80
2022/04/05 06:47:59;;;;;;;11.38;8.10;;;5.00;98.50;;;;;;4211488;28;20056;-81
2022/04/05 06:50:03;;;;;;;9.43;6.43;;;5.00;98.30;;;;;;4198084;28;20121;-80
2022/04/05 06:52:05;;;;;;;8.65;6.35;;;5.00;98.20;;;;;;4197383;28;20068;-82
2022/04/05 06:54:06;;;;;;;8.23;6.35;;;5.10;97.90;;;;;;4189261;28;20172;-83
2022/04/05 06:56:09;;;;;;;7.22;6.50;;;5.10;98.00;;;;;;4191052;28;20111;-79
2022/04/05 06:58:11;;;;;;;6.50;5.90;;;5.20;97.60;;;;;;4190950;28;20125;-80
2022/04/05 07:00:14;;;;;;;6.75;5.80;;;5.20;97.60;;;;;;4189071;28;20053;-81
2022/04/05 07:02:16;;;;;;;8.50;5.50;;;5.30;97.20;;;;;;4183938;28;20816;-80
2022/04/05 07:04:17;;;;;;;7.60;5.97;;;5.30;96.90;;;;;;4183902;28;20148;-80
2022/04/05 07:06:19;;;;;;;8.05;5.72;;;5.30;97.20;;;;;;4180558;28;20109;-79
2022/04/05 07:08:21;;;;;;;7.70;6.05;;;5.40;97.30;;;;;;4190518;28;20053;-80
2022/04/05 07:10:23;;;;;;;8.25;6.25;;;5.40;97.20;;;;;;4185656;28;20092;-80
2022/04/05 07:12:26;;;;;;;6.93;5.35;;;5.50;97.00;;;;;;4187980;28;20048;-80
2022/04/05 07:14:28;;;;;;;6.60;5.28;;;5.50;96.70;;;;;;4196098;28;20049;-79
2022/04/05 07:16:30;;;;;;;6.53;5.80;;;5.60;96.70;;;;;;4196997;28;20041;-80
2022/04/05 07:18:31;;;;;;;5.95;5.35;;;5.60;96.50;;;;;;4194220;28;20045;-78
2022/04/05 07:20:37;;;;;;;6.53;5.53;;;5.70;96.20;;;;;;4185250;28;20046;-81
2022/04/05 07:22:47;;;;;;;7.65;6.25;;;5.70;96.30;;;;;;4191275;28;20045;-79
2022/04/05 07:24:48;;;;;;;7.97;6.28;;;5.80;96.40;;;;;;4189362;28;20058;-79
2022/04/05 07:26:50;;;;;;;7.47;6.53;;;5.80;95.80;;;;;;4190343;28;20125;-80
2022/04/05 07:28:52;;;;;;;6.72;6.05;;;5.90;95.90;;;;;;4177160;28;20061;-80
2022/04/05 07:30:58;;;;;;;7.18;5.32;;;6.00;95.80;;;;;;4177190;28;20845;-81
2022/04/05 07:33:00;;;;;;;5.97;5.38;;;6.00;95.60;;;;;;4206199;28;20091;-80
2022/04/05 07:35:01;;;;;;;6.10;5.57;;;6.10;95.20;;;;;;4197430;28;20041;-80
2022/04/05 07:37:03;;;;;;;5.75;5.10;;;6.00;95.20;;;;;;4184780;28;20840;-80
2022/04/05 07:39:05;;;;;;;5.30;4.80;;;6.10;95.00;;;;;;4199806;23;20103;-81
2022/04/05 07:41:07;;;;;;;7.55;5.88;;;6.10;94.80;;;;;;4211380;28;20095;-80
2022/04/05 07:43:09;;;;;;;7.55;6.15;;;6.20;94.50;;;;;;4204072;28;20048;-80
2022/04/05 07:45:13;;;;;;;8.45;6.00;;;6.20;94.50;;;;;;4203622;28;20100;-80
2022/04/05 07:47:14;;;;;;;7.25;6.20;;;6.30;94.90;;;;;;4202646;28;20061;-80
2022/04/05 07:49:16;;;;;;;6.53;5.40;;;6.40;94.50;;;;;;4202904;28;20737;-79
2022/04/05 07:51:18;;;;;;;5.55;4.88;;;6.40;93.70;;;;;;4184028;28;20064;-81
2022/04/05 07:53:20;;;;;;;5.75;5.25;;;6.40;94.10;;;;;;4187106;28;20868;-80
2022/04/05 07:55:22;;;;;;;10.57;5.15;;;6.50;94.90;;;;;;4199162;28;20093;-80
2022/04/05 07:57:23;;;;;;;26.85;6.85;;;6.50;94.20;;;;;;4186257;28;20857;-80
2022/04/05 07:59:25;;;;;;;8.32;5.38;;;6.50;94.20;;;;;;4200200;28;20063;-79
2022/04/05 08:01:29;;;;;;;6.85;5.30;;;6.50;94.00;;;;;;4199096;28;20053;-79
2022/04/05 08:03:30;;;;;;;6.07;4.80;;;6.50;93.80;;;;;;4192306;28;20057;-79
2022/04/05 08:05:32;;;;;;;6.22;5.28;;;6.70;94.00;;;;;;4195392;28;20091;-79
2022/04/05 08:07:34;;;;;;;7.80;5.45;;;6.70;93.70;;;;;;4185929;28;20050;-80
2022/04/05 08:09:35;;;;;;;6.82;5.20;;;6.70;94.30;;;;;;4171624;28;20789;-80
2022/04/05 08:11:37;;;;;;;7.28;4.85;;;6.80;94.10;;;;;;4194161;28;20126;-80
2022/04/05 08:13:39;;;;;;;6.72;4.97;;;6.80;93.80;;;;;;4183360;28;20054;-82
2022/04/05 08:15:41;;;;;;;5.88;4.63;;;6.90;94.40;;;;;;4187539;28;20115;-80
2022/04/05 08:17:43;;;;;;;6.70;5.13;;;7.00;94.20;;;;;;4201903;28;20064;-81
2022/04/05 08:19:45;;;;;;;5.80;5.20;;;7.10;93.80;;;;;;4191584;28;20160;-79
2022/04/05 08:21:47;;;;;;;8.55;6.05;;;7.10;93.80;;;;;;4181996;28;20172;-80
2022/04/05 08:23:50;;;;;;;7.88;5.25;;;7.20;93.80;;;;;;4177555;28;20066;-81
2022/04/05 08:25:52;;;;;;;5.22;4.72;;;7.20;93.50;;;;;;4196942;28;20052;-81
2022/04/05 08:27:54;;;;;;;8.77;5.32;;;7.20;93.70;;;;;;4188877;28;20804;-80
2022/04/05 08:29:56;;;;;;;5.25;4.63;;;7.30;93.70;;;;;;4174699;28;20056;-82
2022/04/05 08:31:58;;;;;;;7.10;4.80;;;7.30;93.20;;;;;;4193404;28;21292;-81
2022/04/05 08:33:59;;;;;;;4.95;4.45;;;7.30;93.20;;;;;;4186193;28;20991;-81
2022/04/05 08:36:01;;;;;;;9.50;7.20;;;7.30;93.40;;;;;;4186317;28;20089;-80
2022/04/05 08:38:03;;;;;;;6.05;4.63;;;7.40;93.50;;;;;;4189083;28;20068;-80
2022/04/05 08:40:07;;;;;;;5.28;4.68;;;7.40;93.10;;;;;;4209917;28;20033;-82
2022/04/05 08:42:09;;;;;;;4.82;4.35;;;7.40;93.20;;;;;;4209534;28;20084;-81
2022/04/05 08:44:16;;;;;;;6.75;5.13;;;7.30;93.40;;;;;;4195315;28;20686;-81
2022/04/05 08:46:21;;;;;;;6.70;4.88;;;7.40;93.70;;;;;;4189692;28;20062;-82
2022/04/05 08:48:26;;;;;;;7.35;4.40;;;7.40;93.80;;;;;;4197510;28;20057;-82
2022/04/05 08:50:32;;;;;;;6.70;4.50;;;7.40;93.80;;;;;;4183348;28;20172;-82
2022/04/05 08:52:34;;;;;;;5.35;4.03;;;7.50;94.20;;;;;;4176888;28;20089;-82
2022/04/05 08:54:36;;;;;;;8.20;5.65;;;7.60;94.20;;;;;;4201274;28;20152;-81
2022/04/05 08:56:39;;;;;;;5.10;4.57;;;7.80;94.10;;;;;;4198077;28;20053;-82
2022/04/05 08:58:40;;;;;;;5.82;4.85;;;7.90;93.60;;;;;;4203234;28;20052;-81
2022/04/05 09:00:43;;;;;;;6.63;4.07;;;8.00;93.70;;;;;;4199613;28;20060;-81
2022/04/05 09:02:59;;;;;;;5.03;4.45;;;8.10;93.70;;;;;;4190932;28;20943;-82
2022/04/05 09:05:02;;;;;;;4.78;4.15;;;8.30;93.60;;;;;;4181916;28;20138;-81
2022/04/05 09:07:24;;;;;;;5.53;4.53;;;8.50;93.20;;;;;;4219218;28;20061;-81
2022/04/05 09:09:28;;;;;;;4.53;3.95;;;8.70;92.50;;;;;;4187355;28;20280;-80
2022/04/05 09:11:30;;;;;;;4.45;4.05;;;8.90;92.60;;;;;;4205670;28;20083;-81
2022/04/05 09:13:32;;;;;;;5.03;3.63;;;9.00;92.30;;;;;;4214946;28;20061;-82
2022/04/05 09:15:35;;;;;;;6.63;3.78;;;9.10;91.50;;;;;;4192779;28;20049;-81
2022/04/05 09:17:41;;;;;;;4.00;3.70;;;9.10;91.90;;;;;;4215184;28;20888;-82
2022/04/05 09:19:45;;;;;;;5.53;3.75;;;9.10;90.60;;;;;;4205552;28;20056;-81
2022/04/05 09:21:54;;;;;;;6.22;4.03;;;8.90;91.00;;;;;;4174825;28;20053;-82
2022/04/05 09:24:06;;;;;;;4.22;3.55;;;8.90;91.20;;;;;;4190238;28;20062;-81
2022/04/05 09:26:09;;;;;;;4.90;4.40;;;8.70;90.90;;;;;;4188858;28;20982;-81
2022/04/05 09:28:11;;;;;;;4.15;3.75;;;8.60;91.10;;;;;;4183594;28;20061;-81
2022/04/05 09:30:19;;;;;;;5.72;5.05;;;8.60;91.70;;;;;;4188138;28;20157;-81
2022/04/05 09:32:37;;;;;;;6.63;3.85;;;8.70;91.20;;;;;;4186685;28;20113;-81
2022/04/05 09:34:50;;;;;;;3.38;3.08;;;8.70;90.90;;;;;;4209360;28;20064;-81
2022/04/05 09:36:52;;;;;;;5.25;3.55;;;8.70;91.60;;;;;;4185457;28;20089;-81
2022/04/05 09:38:53;;;;;;;4.40;3.85;;;8.70;91.60;;;;;;4172424;28;20163;-81
2022/04/05 09:41:11;;;;;;;4.45;3.60;;;8.60;91.50;;;;;;4185531;28;20072;-80
2022/04/05 09:43:17;;;;;;;4.30;3.72;;;8.60;91.50;;;;;;4175902;28;20064;-80
2022/04/05 09:46:00;;;;;;;5.07;3.35;;;8.60;91.30;;;;;;4185763;28;20061;-79
2022/04/05 09:48:04;;;;;;;3.55;3.25;;;8.50;91.40;;;;;;4186293;28;20053;-81
2022/04/05 09:50:06;;;;;;;3.92;3.33;;;8.50;91.80;;;;;;4179163;28;20872;-81
2022/04/05 09:52:30;;;;;;;6.10;3.15;;;8.50;91.90;;;;;;4185108;28;20061;-81
2022/04/05 09:54:34;;;;;;;6.85;3.50;;;8.60;91.90;;;;;;4179039;28;20154;-80
2022/04/05 09:56:39;;;;;;;5.32;3.40;;;8.70;90.90;;;;;;4174770;28;20052;-80
2022/04/05 09:58:49;;;;;;;3.83;3.03;;;8.70;91.10;;;;;;4185207;28;20064;-80
2022/04/05 10:01:08;;;;;;;4.40;3.90;;;8.70;91.70;;;;;;4171810;28;20057;-81
2022/04/05 10:03:10;;;;;;;7.78;3.35;;;8.70;92.40;;;;;;4177987;28;20058;-80
2022/04/05 10:05:12;;;;;;;5.57;3.20;;;8.80;91.70;;;;;;4185565;28;20068;-80
2022/04/05 10:07:14;;;;;;;4.00;3.60;;;8.70;92.40;;;;;;4205992;28;20196;-81
2022/04/05 10:09:18;;;;;;;4.25;3.20;;;8.60;92.50;;;;;;4190775;28;20085;-80
2022/04/05 10:11:21;;;;;;;3.88;3.53;;;8.60;92.50;;;;;;4193227;28;20103;-80
2022/04/05 10:13:22;;;;;;;4.78;3.20;;;8.60;92.60;;;;;;4168331;28;20967;-81
2022/04/05 10:15:28;;;;;;;6.68;3.63;;;8.70;92.60;;;;;;4193875;28;21413;-79
2022/04/05 10:17:30;;;;;;;4.28;3.88;;;8.70;92.50;;;;;;4188270;28;20099;-79
2022/04/05 10:19:35;;;;;;;3.97;3.58;;;8.80;92.90;;;;;;4178293;28;20057;-82
2022/04/05 10:21:39;;;;;;;5.78;3.75;;;8.90;93.10;;;;;;4185590;28;20054;-80
2022/04/05 10:23:43;;;;;;;5.97;3.63;;;8.80;93.20;;;;;;4184192;28;20057;-82
2022/04/05 10:25:48;;;;;;;5.57;4.05;;;8.90;93.50;;;;;;4197307;28;20057;-81
2022/04/05 10:27:50;;;;;;;3.22;2.63;;;8.90;93.70;;;;;;4192116;28;20064;-80
2022/04/05 10:30:32;;;;;;;4.15;3.33;;;9.00;94.20;;;;;;4168560;28;20117;-81
2022/04/05 10:32:45;;;;;;;4.25;3.85;;;8.90;94.30;;;;;;4175327;28;20851;-80
2022/04/05 10:34:54;;;;;;;4.50;3.95;;;9.00;95.50;;;;;;4195452;28;20057;-80
2022/04/05 10:37:18;;;;;;;4.30;3.35;;;9.10;95.60;;;;;;4190401;28;20073;-83
2022/04/05 10:39:22;;;;;;;3.28;2.88;;;9.10;95.40;;;;;;4187548;28;20056;-80
2022/04/05 10:41:24;;;;;;;5.45;3.83;;;9.10;95.30;;;;;;4182863;28;20132;-80
2022/04/05 10:43:26;;;;;;;5.95;3.92;;;9.10;96.10;;;;;;4184096;28;20784;-82
2022/04/05 10:45:33;;;;;;;4.28;3.85;;;9.10;95.80;;;;;;4195745;28;20048;-81
2022/04/05 10:47:57;;;;;;;5.03;3.08;;;9.20;96.00;;;;;;4219642;28;20076;-80
2022/04/05 10:50:19;;;;;;;3.53;3.22;;;9.40;95.20;;;;;;4183556;28;20104;-81
2022/04/05 10:52:34;;;;;;;4.32;3.28;;;9.40;94.00;;;;;;4183727;28;20148;-81